Time;durP1;ratioP1;P1;durP2;ratioP2;P2;SDS_P1;SDS_P2;PMS_P1;PMS_P2;Temp;Humidity;BMP_temperature;BMP_pressure;BME280_temperature;BME280_humidity;BME280_pressure;Samples;Min_cycle;Max_cycle;Signal;HPM_P1;HPM_P2
2021/12/18 00:01:18;;;;;;;13.80;7.50;;;;;;;;;;5033494;28;20457;-39
2021/12/18 00:03:45;;;;;;;14.43;7.90;;;;;;;;;;5050898;28;20453;-38
2021/12/18 00:06:11;;;;;;;15.30;7.32;;;;;;;;;;5050924;28;20029;-39
2021/12/18 00:08:38;;;;;;;19.52;8.20;;;;;;;;;;5051825;28;20370;-38
2021/12/18 00:11:05;;;;;;;16.00;7.43;;;;;;;;;;5051809;28;20032;-38
2021/12/18 00:13:30;;;;;;;15.68;7.43;;;;;;;;;;5051806;28;20416;-38
2021/12/18 00:15:56;;;;;;;17.58;7.90;;;;;;;;;;5034206;28;20477;-37
2021/12/18 00:18:22;;;;;;;15.40;7.53;;;;;;;;;;5052407;28;20458;-38
2021/12/18 00:20:48;;;;;;;17.95;7.63;;;;;;;;;;5052375;28;20017;-39
2021/12/18 00:23:13;;;;;;;16.50;6.95;;;;;;;;;;5034376;28;20543;-38
2021/12/18 00:25:39;;;;;;;15.50;7.50;;;;;;;;;;5052318;28;20025;-38
2021/12/18 00:28:06;;;;;;;14.77;8.18;;;;;;;;;;5052015;28;20452;-38
2021/12/18 00:30:33;;;;;;;13.98;7.60;;;;;;;;;;5051975;28;20440;-38
2021/12/18 00:32:59;;;;;;;13.95;6.95;;;;;;;;;;5051995;28;20017;-38
2021/12/18 00:35:24;;;;;;;15.98;7.97;;;;;;;;;;5052168;28;20055;-39
2021/12/18 00:37:50;;;;;;;18.83;7.20;;;;;;;;;;5052217;28;20024;-40
2021/12/18 00:40:25;;;;;;;17.63;7.47;;;;;;;;;;5051980;28;20056;-39
2021/12/18 00:43:00;;;;;;;14.93;7.32;;;;;;;;;;5051919;28;20503;-39
2021/12/18 00:45:28;;;;;;;14.52;7.30;;;;;;;;;;5052168;28;20108;-39
2021/12/18 00:47:54;;;;;;;12.20;7.20;;;;;;;;;;5051794;28;20040;-39
2021/12/18 00:50:28;;;;;;;13.98;6.22;;;;;;;;;;5051713;28;20028;-38
2021/12/18 00:52:54;;;;;;;15.13;7.47;;;;;;;;;;5050572;28;20513;-38
2021/12/18 00:55:20;;;;;;;10.73;5.93;;;;;;;;;;5055014;28;20033;-38
2021/12/18 00:57:47;;;;;;;12.05;5.88;;;;;;;;;;5055503;28;20021;-40
2021/12/18 01:00:16;;;;;;;12.77;6.60;;;;;;;;;;5055565;28;20492;-38
2021/12/18 01:02:44;;;;;;;13.02;5.93;;;;;;;;;;5055551;28;20029;-38
2021/12/18 01:05:10;;;;;;;14.13;6.28;;;;;;;;;;5055474;28;20104;-38
2021/12/18 01:07:36;;;;;;;12.90;6.45;;;;;;;;;;5055716;28;20381;-39
2021/12/18 01:12:50;;;;;;;16.70;5.90;;;;;;;;;;5055449;28;20542;-38
2021/12/18 01:23:22;;;;;;;13.43;6.25;;;;;;;;;;5055606;28;20128;-38
2021/12/18 01:25:52;;;;;;;17.35;6.13;;;;;;;;;;5055169;28;20517;-38
2021/12/18 01:28:18;;;;;;;10.82;5.80;;;;;;;;;;5055144;28;20035;-38
2021/12/18 01:30:44;;;;;;;12.73;5.75;;;;;;;;;;5055343;28;20024;-38
2021/12/18 01:33:09;;;;;;;10.48;5.65;;;;;;;;;;5054999;28;20408;-38
2021/12/18 01:35:35;;;;;;;11.13;5.40;;;;;;;;;;5054920;28;20025;-38
2021/12/18 01:38:02;;;;;;;9.82;5.35;;;;;;;;;;5054926;28;20119;-38
2021/12/18 01:40:28;;;;;;;12.38;5.90;;;;;;;;;;5054898;28;20473;-37
2021/12/18 01:51:20;;;;;;;13.23;5.70;;;;;;;;;;5054740;28;20019;-38
2021/12/18 01:53:49;;;;;;;12.85;5.50;;;;;;;;;;5054715;28;20025;-39
2021/12/18 01:56:15;;;;;;;10.00;5.63;;;;;;;;;;5054585;28;20025;-37
2021/12/18 01:58:44;;;;;;;11.07;5.50;;;;;;;;;;5054651;28;20458;-37
2021/12/18 02:01:10;;;;;;;14.07;6.20;;;;;;;;;;5054865;28;20056;-37
2021/12/18 02:03:35;;;;;;;10.75;5.50;;;;;;;;;;5054468;28;20511;-37
2021/12/18 02:06:01;;;;;;;11.57;5.93;;;;;;;;;;5053423;28;20029;-37
2021/12/18 02:08:30;;;;;;;9.45;5.68;;;;;;;;;;5054417;28;20094;-38
2021/12/18 02:21:32;;;;;;;12.40;6.43;;;;;;;;;;5054314;28;20083;-38
2021/12/18 02:23:58;;;;;;;10.15;6.03;;;;;;;;;;5054473;28;20037;-38
2021/12/18 02:26:24;;;;;;;14.32;6.65;;;;;;;;;;5036263;28;20029;-38
2021/12/18 02:28:52;;;;;;;12.60;5.72;;;;;;;;;;5054054;28;20029;-38
2021/12/18 02:31:18;;;;;;;12.45;5.90;;;;;;;;;;5054300;28;20075;-39
2021/12/18 02:33:45;;;;;;;14.65;6.18;;;;;;;;;;5054068;28;20476;-38
2021/12/18 02:36:19;;;;;;;11.93;5.93;;;;;;;;;;5054142;28;20053;-38
2021/12/18 02:39:01;;;;;;;12.93;6.28;;;;;;;;;;5054255;28;20067;-39
2021/12/18 02:41:40;;;;;;;9.02;5.35;;;;;;;;;;5054107;28;20083;-38
2021/12/18 02:44:10;;;;;;;11.98;6.57;;;;;;;;;;5053797;28;20029;-38
2021/12/18 02:46:37;;;;;;;14.50;5.95;;;;;;;;;;5053731;28;20075;-38
2021/12/18 02:49:12;;;;;;;10.27;6.07;;;;;;;;;;5053639;28;20025;-38
2021/12/18 02:51:38;;;;;;;11.85;5.63;;;;;;;;;;5053614;28;20029;-39
2021/12/18 02:54:04;;;;;;;11.05;5.63;;;;;;;;;;5053641;28;20066;-38
2021/12/18 02:56:30;;;;;;;13.38;5.60;;;;;;;;;;5053388;28;20032;-39
2021/12/18 02:59:06;;;;;;;13.30;6.78;;;;;;;;;;5053356;28;20029;-39
2021/12/18 03:01:34;;;;;;;12.70;5.38;;;;;;;;;;5053339;28;20048;-39
2021/12/18 03:04:01;;;;;;;8.45;5.07;;;;;;;;;;5053309;28;20029;-38
2021/12/18 03:06:35;;;;;;;10.98;5.50;;;;;;;;;;5053316;28;20024;-39
2021/12/18 03:25:07;;;;;;;10.10;5.78;;;;;;;;;;5053298;28;20057;-39
2021/12/18 03:27:32;;;;;;;13.52;6.03;;;;;;;;;;5052965;28;20033;-38
2021/12/18 03:29:58;;;;;;;11.57;6.03;;;;;;;;;;5052865;28;20162;-39
2021/12/18 03:32:24;;;;;;;10.38;5.65;;;;;;;;;;5052939;28;20029;-38
2021/12/18 03:34:51;;;;;;;10.93;5.80;;;;;;;;;;5053013;28;20033;-38
2021/12/18 03:37:16;;;;;;;11.25;5.90;;;;;;;;;;5052711;28;20118;-37
2021/12/18 03:39:43;;;;;;;12.30;5.07;;;;;;;;;;5052793;28;20049;-39
2021/12/18 03:42:08;;;;;;;8.10;4.95;;;;;;;;;;5052647;28;20487;-38
2021/12/18 03:44:34;;;;;;;9.18;5.55;;;;;;;;;;5052932;28;20120;-39
2021/12/18 03:47:00;;;;;;;11.65;5.28;;;;;;;;;;5052670;28;20143;-38
2021/12/18 03:49:26;;;;;;;10.43;5.55;;;;;;;;;;5052860;28;20400;-38
2021/12/18 03:51:52;;;;;;;12.23;5.32;;;;;;;;;;5052476;28;20124;-37
2021/12/18 03:54:17;;;;;;;10.57;5.28;;;;;;;;;;5052685;28;20059;-38
2021/12/18 03:56:43;;;;;;;11.30;5.65;;;;;;;;;;5052721;28;20033;-38
2021/12/18 03:59:09;;;;;;;13.50;5.22;;;;;;;;;;5052765;28;20029;-38
2021/12/18 04:01:34;;;;;;;18.30;4.45;;;;;;;;;;5052403;28;20061;-38
2021/12/18 04:04:00;;;;;;;14.60;5.95;;;;;;;;;;5052697;28;20029;-38
2021/12/18 04:06:26;;;;;;;12.02;5.88;;;;;;;;;;5052564;28;20025;-38
2021/12/18 04:08:51;;;;;;;9.13;4.57;;;;;;;;;;5052517;28;20064;-39
2021/12/18 04:11:17;;;;;;;10.93;5.07;;;;;;;;;;5052586;28;20029;-38
2021/12/18 04:13:44;;;;;;;9.73;5.15;;;;;;;;;;5052171;28;20087;-38
2021/12/18 04:16:10;;;;;;;10.00;4.82;;;;;;;;;;5052502;28;20037;-38
2021/12/18 04:18:35;;;;;;;12.25;4.88;;;;;;;;;;5052171;28;20103;-39
2021/12/18 04:21:00;;;;;;;7.80;4.45;;;;;;;;;;5052489;28;20025;-38
2021/12/18 04:23:26;;;;;;;12.43;5.32;;;;;;;;;;5052203;28;20029;-39
2021/12/18 04:25:52;;;;;;;10.15;4.88;;;;;;;;;;5052142;28;20033;-38
2021/12/18 04:28:17;;;;;;;6.97;4.95;;;;;;;;;;5052065;28;20064;-39
2021/12/18 04:30:43;;;;;;;10.10;4.85;;;;;;;;;;5056362;28;20021;-38
2021/12/18 04:33:08;;;;;;;11.38;5.20;;;;;;;;;;5056175;28;20124;-38
2021/12/18 04:35:34;;;;;;;11.63;5.68;;;;;;;;;;5056088;28;20033;-38
2021/12/18 04:38:00;;;;;;;9.07;4.50;;;;;;;;;;5056074;28;20033;-38
2021/12/18 04:40:26;;;;;;;14.77;5.38;;;;;;;;;;5056014;28;20032;-38
2021/12/18 04:42:52;;;;;;;12.93;5.32;;;;;;;;;;5056291;28;20025;-39
2021/12/18 04:45:21;;;;;;;10.73;4.70;;;;;;;;;;5055946;28;20644;-38
2021/12/18 04:47:47;;;;;;;10.85;5.68;;;;;;;;;;5056163;28;20040;-38
2021/12/18 04:50:12;;;;;;;12.25;5.43;;;;;;;;;;5056247;28;20016;-38
2021/12/18 04:52:38;;;;;;;18.50;6.13;;;;;;;;;;5055966;28;20488;-38
2021/12/18 04:55:05;;;;;;;11.13;5.00;;;;;;;;;;5055768;28;20465;-38
2021/12/18 04:57:30;;;;;;;7.90;4.55;;;;;;;;;;5056063;28;20025;-38
2021/12/18 04:59:56;;;;;;;15.90;5.47;;;;;;;;;;5056022;28;20017;-39
2021/12/18 05:02:25;;;;;;;13.05;5.43;;;;;;;;;;5056009;28;20029;-38
2021/12/18 05:04:52;;;;;;;9.52;5.47;;;;;;;;;;5055686;28;20488;-38
2021/12/18 05:07:18;;;;;;;10.80;4.60;;;;;;;;;;5055538;28;20035;-39
2021/12/18 05:09:44;;;;;;;11.32;4.72;;;;;;;;;;5055565;28;20084;-38
2021/12/18 05:12:11;;;;;;;12.30;5.82;;;;;;;;;;5055503;28;20124;-38
2021/12/18 05:14:37;;;;;;;11.50;4.82;;;;;;;;;;5055700;28;20111;-37
2021/12/18 05:17:03;;;;;;;11.13;4.43;;;;;;;;;;5055461;28;20477;-38
2021/12/18 05:19:28;;;;;;;9.70;4.68;;;;;;;;;;5055614;28;20098;-38
2021/12/18 05:21:54;;;;;;;11.40;5.45;;;;;;;;;;5055674;28;20024;-38
2021/12/18 05:24:19;;;;;;;11.57;4.97;;;;;;;;;;5055300;28;20116;-38
2021/12/18 05:26:45;;;;;;;9.48;4.50;;;;;;;;;;5055607;28;20021;-38
2021/12/18 05:29:10;;;;;;;8.60;4.53;;;;;;;;;;5055422;28;20544;-38
2021/12/18 05:31:36;;;;;;;7.78;4.65;;;;;;;;;;5055205;28;20025;-38
2021/12/18 05:34:03;;;;;;;11.25;5.45;;;;;;;;;;5055290;28;20057;-38
2021/12/18 05:38:54;;;;;;;8.77;4.25;;;;;;;;;;5055288;28;20087;-37
2021/12/18 05:41:20;;;;;;;12.10;4.85;;;;;;;;;;5054933;28;20024;-37
2021/12/18 05:43:45;;;;;;;13.75;4.80;;;;;;;;;;5055176;28;20037;-37
2021/12/18 05:46:11;;;;;;;10.68;4.65;;;;;;;;;;5055102;28;20021;-37
2021/12/18 05:48:36;;;;;;;13.38;5.40;;;;;;;;;;5055148;28;20029;-37
2021/12/18 05:51:05;;;;;;;7.93;4.95;;;;;;;;;;5055039;28;20017;-37
2021/12/18 05:53:31;;;;;;;17.55;5.25;;;;;;;;;;5054700;28;20029;-37
2021/12/18 05:55:56;;;;;;;7.03;4.18;;;;;;;;;;5054527;28;20056;-37
2021/12/18 05:58:22;;;;;;;7.47;4.30;;;;;;;;;;5054566;28;20033;-37
2021/12/18 06:00:47;;;;;;;9.52;4.93;;;;;;;;;;5054826;28;20037;-37
2021/12/18 06:03:13;;;;;;;9.23;4.78;;;;;;;;;;5054425;28;20420;-37
2021/12/18 06:05:38;;;;;;;15.32;4.90;;;;;;;;;;5054414;28;20025;-37
2021/12/18 06:08:09;;;;;;;9.15;4.78;;;;;;;;;;5054703;28;20036;-37
2021/12/18 06:10:36;;;;;;;7.93;4.57;;;;;;;;;;5054787;28;20047;-37
2021/12/18 06:13:03;;;;;;;9.32;4.72;;;;;;;;;;5054304;28;20041;-37
2021/12/18 06:15:30;;;;;;;14.45;5.32;;;;;;;;;;5054589;28;20060;-37
2021/12/18 06:17:57;;;;;;;14.38;5.40;;;;;;;;;;5054318;28;20029;-37
2021/12/18 06:20:23;;;;;;;10.85;5.30;;;;;;;;;;5054214;28;20473;-37
2021/12/18 06:22:48;;;;;;;10.88;5.35;;;;;;;;;;5036291;28;20037;-37
2021/12/18 06:25:14;;;;;;;13.68;5.50;;;;;;;;;;5054421;28;20056;-38
2021/12/18 06:27:40;;;;;;;10.45;4.93;;;;;;;;;;5054045;28;20591;-38
2021/12/18 06:30:06;;;;;;;9.98;4.68;;;;;;;;;;5054055;28;20040;-38
2021/12/18 06:32:32;;;;;;;9.25;5.63;;;;;;;;;;5054215;28;20025;-38
2021/12/18 06:34:57;;;;;;;7.88;4.60;;;;;;;;;;5053876;28;20067;-38
2021/12/18 06:37:23;;;;;;;14.35;5.57;;;;;;;;;;5054250;28;20095;-38
2021/12/18 06:39:48;;;;;;;9.90;5.00;;;;;;;;;;5036086;28;20021;-38
2021/12/18 06:42:14;;;;;;;10.75;6.10;;;;;;;;;;5054095;28;20033;-37
2021/12/18 06:44:39;;;;;;;11.13;4.57;;;;;;;;;;5053829;28;20378;-38
2021/12/18 06:47:05;;;;;;;10.35;5.13;;;;;;;;;;5054081;28;20020;-37
2021/12/18 06:49:30;;;;;;;8.77;5.25;;;;;;;;;;5053766;28;20025;-37
2021/12/18 06:51:57;;;;;;;13.15;5.72;;;;;;;;;;5053128;28;20342;-37
2021/12/18 06:54:23;;;;;;;8.90;5.38;;;;;;;;;;5053513;28;20469;-37
2021/12/18 06:56:49;;;;;;;9.55;5.47;;;;;;;;;;5053488;28;20029;-37
2021/12/18 06:59:15;;;;;;;9.43;5.50;;;;;;;;;;5053675;28;20099;-37
2021/12/18 07:01:40;;;;;;;13.88;5.57;;;;;;;;;;5053723;28;20457;-37
2021/12/18 07:04:06;;;;;;;14.82;6.53;;;;;;;;;;5053380;28;20469;-38
2021/12/18 07:06:31;;;;;;;16.75;8.70;;;;;;;;;;5053666;28;20154;-38
2021/12/18 07:08:57;;;;;;;8.95;4.78;;;;;;;;;;5053617;28;20029;-38
2021/12/18 07:11:24;;;;;;;31.23;13.20;;;;;;;;;;5053525;28;20029;-37
2021/12/18 07:13:49;;;;;;;13.23;6.35;;;;;;;;;;5053016;28;20040;-38
2021/12/18 07:16:15;;;;;;;8.38;5.32;;;;;;;;;;5053375;28;20036;-37
2021/12/18 07:18:41;;;;;;;11.73;6.28;;;;;;;;;;5053167;28;20579;-37
2021/12/18 07:21:06;;;;;;;11.45;5.30;;;;;;;;;;5053378;28;20028;-38
2021/12/18 07:23:32;;;;;;;11.02;5.50;;;;;;;;;;5052785;28;20444;-38
2021/12/18 07:25:57;;;;;;;12.10;5.43;;;;;;;;;;5053227;28;20017;-38
2021/12/18 07:28:23;;;;;;;17.80;6.80;;;;;;;;;;5052914;28;20461;-38
2021/12/18 07:30:48;;;;;;;10.45;6.20;;;;;;;;;;5052893;28;20025;-38
2021/12/18 07:33:14;;;;;;;10.15;6.30;;;;;;;;;;5052966;28;20064;-38
2021/12/18 07:35:41;;;;;;;9.57;5.10;;;;;;;;;;5052405;28;20152;-38
2021/12/18 07:38:07;;;;;;;10.18;4.72;;;;;;;;;;5052451;28;20036;-38
2021/12/18 07:40:34;;;;;;;8.35;5.10;;;;;;;;;;5052759;28;20033;-38
2021/12/18 07:43:00;;;;;;;10.15;5.40;;;;;;;;;;5052996;28;20029;-39
2021/12/18 07:45:26;;;;;;;9.88;5.55;;;;;;;;;;5052755;28;20413;-38
2021/12/18 07:47:51;;;;;;;7.93;5.00;;;;;;;;;;5052639;28;20032;-39
2021/12/18 07:50:20;;;;;;;9.35;4.93;;;;;;;;;;5052520;28;20040;-38
2021/12/18 07:52:49;;;;;;;9.85;5.22;;;;;;;;;;5052749;28;20033;-38
2021/12/18 07:55:16;;;;;;;20.15;10.15;;;;;;;;;;5052399;28;20401;-38
2021/12/18 07:57:42;;;;;;;21.50;10.90;;;;;;;;;;5052523;28;20600;-38
2021/12/18 08:00:11;;;;;;;16.80;7.95;;;;;;;;;;5052470;28;20067;-37
2021/12/18 08:02:37;;;;;;;21.63;10.30;;;;;;;;;;5052317;28;20104;-38
2021/12/18 08:05:03;;;;;;;17.80;9.93;;;;;;;;;;5052605;28;20152;-38
2021/12/18 08:07:29;;;;;;;19.38;8.90;;;;;;;;;;5052361;28;20025;-38
2021/12/18 08:09:54;;;;;;;19.15;9.60;;;;;;;;;;5052216;28;20036;-38
2021/12/18 08:12:20;;;;;;;13.00;7.00;;;;;;;;;;5052123;28;20051;-38
2021/12/18 08:14:46;;;;;;;11.70;5.60;;;;;;;;;;5052343;28;20059;-38
2021/12/18 08:17:11;;;;;;;16.67;6.80;;;;;;;;;;5052208;28;20111;-38
2021/12/18 08:19:37;;;;;;;10.68;6.07;;;;;;;;;;5052184;28;20074;-38
2021/12/18 08:22:03;;;;;;;10.93;6.10;;;;;;;;;;5051346;28;20021;-38
2021/12/18 08:24:28;;;;;;;15.38;6.25;;;;;;;;;;5050374;28;20112;-39
2021/12/18 08:26:54;;;;;;;13.93;7.07;;;;;;;;;;5050315;28;20477;-39
2021/12/18 08:29:19;;;;;;;15.30;6.93;;;;;;;;;;5050513;28;20021;-38
2021/12/18 08:31:45;;;;;;;15.63;7.20;;;;;;;;;;5051129;28;20029;-38
2021/12/18 08:34:11;;;;;;;15.45;5.68;;;;;;;;;;5052262;28;20392;-38
2021/12/18 08:36:37;;;;;;;11.30;6.03;;;;;;;;;;5051863;28;20131;-38
2021/12/18 08:39:03;;;;;;;13.80;5.60;;;;;;;;;;5050648;28;20139;-38
2021/12/18 08:41:29;;;;;;;11.77;6.05;;;;;;;;;;5051128;28;20032;-38
2021/12/18 08:43:55;;;;;;;11.90;5.72;;;;;;;;;;5051407;28;20028;-38
2021/12/18 08:46:21;;;;;;;52.55;7.57;;;;;;;;;;5051206;28;20112;-38
2021/12/18 08:48:46;;;;;;;11.75;5.20;;;;;;;;;;5050420;28;20036;-40
2021/12/18 08:51:12;;;;;;;10.38;4.80;;;;;;;;;;5050396;28;20033;-37
2021/12/18 08:53:38;;;;;;;24.50;6.93;;;;;;;;;;5049896;28;20528;-37
2021/12/18 08:56:04;;;;;;;11.13;5.68;;;;;;;;;;5045885;28;20041;-41
2021/12/18 08:58:30;;;;;;;11.40;5.50;;;;;;;;;;5048877;28;20051;-39
2021/12/18 09:00:56;;;;;;;12.25;5.40;;;;;;;;;;5048399;28;20033;-38
2021/12/18 09:03:22;;;;;;;8.73;5.25;;;;;;;;;;5048840;28;20033;-43
2021/12/18 09:05:48;;;;;;;10.80;5.40;;;;;;;;;;5048328;28;20427;-43
2021/12/18 09:08:14;;;;;;;10.38;5.18;;;;;;;;;;5047969;28;20029;-37
2021/12/18 09:10:39;;;;;;;8.35;4.78;;;;;;;;;;5029898;28;20029;-39
2021/12/18 09:13:05;;;;;;;14.38;5.68;;;;;;;;;;5048283;28;20048;-38
2021/12/18 09:15:30;;;;;;;21.45;6.45;;;;;;;;;;5047870;28;20522;-41
2021/12/18 09:17:56;;;;;;;9.23;4.97;;;;;;;;;;5050819;28;20412;-39
2021/12/18 09:20:21;;;;;;;12.25;5.55;;;;;;;;;;5050930;28;20036;-37
2021/12/18 09:22:47;;;;;;;9.38;5.40;;;;;;;;;;5051202;28;20120;-39
2021/12/18 09:25:13;;;;;;;8.63;5.00;;;;;;;;;;5051084;28;20037;-37
2021/12/18 09:27:39;;;;;;;9.93;5.47;;;;;;;;;;5050907;28;20071;-38
2021/12/18 09:30:09;;;;;;;8.57;5.15;;;;;;;;;;5051276;28;20059;-37
2021/12/18 09:32:36;;;;;;;8.43;4.85;;;;;;;;;;5020336;28;20041;-37
2021/12/18 09:35:01;;;;;;;12.95;4.95;;;;;;;;;;5051794;28;20079;-36
2021/12/18 09:37:27;;;;;;;8.38;4.90;;;;;;;;;;5052022;28;20037;-37
2021/12/18 09:39:52;;;;;;;9.00;5.32;;;;;;;;;;5051887;28;20086;-37
2021/12/18 09:42:18;;;;;;;13.85;5.38;;;;;;;;;;5052107;28;20773;-37
2021/12/18 09:44:49;;;;;;;10.38;5.78;;;;;;;;;;5052780;28;20040;-37
2021/12/18 09:47:15;;;;;;;14.70;5.53;;;;;;;;;;5053207;28;20087;-38
2021/12/18 09:49:40;;;;;;;8.90;5.28;;;;;;;;;;5053478;28;20033;-37
2021/12/18 09:52:06;;;;;;;10.85;5.50;;;;;;;;;;5053022;28;20029;-36
2021/12/18 09:54:32;;;;;;;9.45;4.93;;;;;;;;;;5052888;28;20369;-36
2021/12/18 09:56:57;;;;;;;12.32;4.82;;;;;;;;;;5052464;28;20451;-37
2021/12/18 09:59:23;;;;;;;11.23;5.00;;;;;;;;;;5052742;28;20477;-37
2021/12/18 10:01:48;;;;;;;9.07;4.75;;;;;;;;;;5053162;28;20119;-37
2021/12/18 10:04:33;;;;;;;8.75;4.53;;;;;;;;;;5052922;28;20112;-36
2021/12/18 10:07:01;;;;;;;11.00;5.32;;;;;;;;;;5052663;28;20093;-37
2021/12/18 10:09:27;;;;;;;7.68;4.90;;;;;;;;;;5052197;28;20028;-39
2021/12/18 10:11:58;;;;;;;7.05;5.00;;;;;;;;;;5052197;28;20037;-37
2021/12/18 10:14:43;;;;;;;9.13;4.85;;;;;;;;;;5052250;28;20025;-47
2021/12/18 10:17:39;;;;;;;8.13;4.60;;;;;;;;;;5052533;28;20066;-42
2021/12/18 10:20:10;;;;;;;10.25;5.20;;;;;;;;;;5052105;28;20370;-47
2021/12/18 10:22:43;;;;;;;8.52;4.72;;;;;;;;;;5052596;28;20560;-39
2021/12/18 10:25:10;;;;;;;7.93;5.03;;;;;;;;;;5051400;28;20024;-40
2021/12/18 10:27:37;;;;;;;12.85;5.68;;;;;;;;;;5051328;28;20111;-37
2021/12/18 10:30:20;;;;;;;8.63;4.80;;;;;;;;;;5052795;28;20029;-43
2021/12/18 10:32:57;;;;;;;9.52;4.22;;;;;;;;;;5052362;28;20638;-38
2021/12/18 10:35:55;;;;;;;6.47;4.50;;;;;;;;;;5052564;28;20063;-38
2021/12/18 10:38:48;;;;;;;13.68;5.18;;;;;;;;;;5052434;28;20021;-40
2021/12/18 10:41:29;;;;;;;7.50;4.55;;;;;;;;;;5052726;28;20032;-43
2021/12/18 10:44:02;;;;;;;10.82;5.20;;;;;;;;;;5052445;28;20400;-38
2021/12/18 10:46:29;;;;;;;8.40;4.70;;;;;;;;;;5052264;28;20025;-40
2021/12/18 10:49:02;;;;;;;7.82;4.90;;;;;;;;;;5051940;28;20111;-43
2021/12/18 10:51:30;;;;;;;9.55;5.05;;;;;;;;;;5052183;28;20029;-41
2021/12/18 10:54:07;;;;;;;9.50;5.10;;;;;;;;;;5051990;28;20666;-37
2021/12/18 10:56:44;;;;;;;9.27;5.10;;;;;;;;;;5051904;28;20056;-37
2021/12/18 10:59:31;;;;;;;9.43;4.78;;;;;;;;;;5052165;28;20082;-38
2021/12/18 11:02:02;;;;;;;12.23;5.80;;;;;;;;;;5051901;28;20037;-38
2021/12/18 11:04:31;;;;;;;11.40;5.00;;;;;;;;;;5052080;28;20025;-39
2021/12/18 11:06:57;;;;;;;7.90;4.70;;;;;;;;;;5051801;28;20493;-40
2021/12/18 11:09:31;;;;;;;8.30;5.00;;;;;;;;;;5051546;28;20489;-37
2021/12/18 11:14:43;;;;;;;8.68;4.57;;;;;;;;;;5049979;28;20476;-43
2021/12/18 11:17:12;;;;;;;9.18;5.15;;;;;;;;;;5051541;28;20112;-42
2021/12/18 11:19:39;;;;;;;9.55;5.15;;;;;;;;;;5050304;28;20029;-37
2021/12/18 11:22:09;;;;;;;8.02;4.55;;;;;;;;;;5049570;28;20074;-39
2021/12/18 11:24:41;;;;;;;9.07;4.22;;;;;;;;;;5050128;28;20048;-43
2021/12/18 11:27:17;;;;;;;8.65;4.93;;;;;;;;;;5049895;28;20025;-42
2021/12/18 11:29:51;;;;;;;5.97;4.60;;;;;;;;;;5051344;28;20108;-45
2021/12/18 11:32:23;;;;;;;6.72;4.53;;;;;;;;;;5051448;28;20427;-43
2021/12/18 11:34:53;;;;;;;6.85;4.40;;;;;;;;;;5051451;28;20450;-40
2021/12/18 11:37:20;;;;;;;8.20;4.28;;;;;;;;;;5051433;28;20029;-39
2021/12/18 11:39:48;;;;;;;10.80;4.85;;;;;;;;;;5051193;28;20041;-40
2021/12/18 11:42:15;;;;;;;7.82;4.82;;;;;;;;;;5051406;28;20600;-40
2021/12/18 11:44:56;;;;;;;8.43;4.55;;;;;;;;;;5051195;28;20033;-41
2021/12/18 11:47:36;;;;;;;5.30;3.83;;;;;;;;;;5051412;28;20115;-45
2021/12/18 11:50:07;;;;;;;10.80;4.20;;;;;;;;;;5051143;28;20260;-37
2021/12/18 11:53:11;;;;;;;7.93;3.97;;;;;;;;;;5051273;28;20040;-37
2021/12/18 11:55:55;;;;;;;7.22;3.88;;;;;;;;;;5050963;28;20055;-39
2021/12/18 11:58:26;;;;;;;9.68;4.20;;;;;;;;;;5051267;28;20408;-40
2021/12/18 12:00:56;;;;;;;5.68;3.95;;;;;;;;;;5050168;28;20048;-41
2021/12/18 12:03:35;;;;;;;;;;;;;;;;;;5051036;28;20055;-40
2021/12/18 12:06:04;;;;;;;6.78;4.03;;;;;;;;;;5051130;28;20280;-39
2021/12/18 12:08:40;;;;;;;7.28;4.18;;;;;;;;;;5051008;28;20048;-41
2021/12/18 12:11:26;;;;;;;6.55;4.00;;;;;;;;;;5050346;28;20459;-43
2021/12/18 12:13:58;;;;;;;10.45;4.65;;;;;;;;;;5045897;28;20105;-43
2021/12/18 12:16:42;;;;;;;6.38;3.50;;;;;;;;;;5049731;28;20624;-41
2021/12/18 12:19:08;;;;;;;6.00;4.05;;;;;;;;;;5045178;28;20534;-45
2021/12/18 12:21:56;;;;;;;7.28;3.88;;;;;;;;;;5050754;28;20052;-37
2021/12/18 12:24:25;;;;;;;8.45;4.40;;;;;;;;;;5050631;28;20405;-44
2021/12/18 12:26:53;;;;;;;8.70;4.25;;;;;;;;;;5049985;28;20025;-41
2021/12/18 12:29:20;;;;;;;10.02;4.40;;;;;;;;;;5050804;28;20040;-40
2021/12/18 12:32:07;;;;;;;7.13;4.20;;;;;;;;;;5050714;28;20036;-41
2021/12/18 12:34:35;;;;;;;9.68;4.57;;;;;;;;;;5050115;28;20473;-38
2021/12/18 12:37:22;;;;;;;9.63;4.00;;;;;;;;;;5050255;28;20719;-39
2021/12/18 12:39:56;;;;;;;7.88;3.85;;;;;;;;;;5046788;28;20469;-40
2021/12/18 12:42:22;;;;;;;5.43;3.88;;;;;;;;;;5050468;28;20032;-41
2021/12/18 12:45:00;;;;;;;6.28;3.58;;;;;;;;;;5050216;28;20033;-42
2021/12/18 12:47:28;;;;;;;12.25;4.45;;;;;;;;;;5050301;28;20032;-38
2021/12/18 12:50:21;;;;;;;8.88;3.83;;;;;;;;;;5049869;28;20025;-43
2021/12/18 12:52:55;;;;;;;6.85;3.95;;;;;;;;;;5054040;28;20025;-37
2021/12/18 12:55:23;;;;;;;6.60;4.18;;;;;;;;;;5051270;28;20389;-39
2021/12/18 12:57:55;;;;;;;9.20;4.72;;;;;;;;;;5053603;28;20032;-40
2021/12/18 13:00:23;;;;;;;8.20;3.92;;;;;;;;;;5053104;28;20032;-38
2021/12/18 13:02:58;;;;;;;9.02;4.13;;;;;;;;;;5053763;28;20366;-46
2021/12/18 13:05:27;;;;;;;7.40;4.00;;;;;;;;;;5054028;28;20039;-38
2021/12/18 13:07:58;;;;;;;9.23;4.53;;;;;;;;;;5054261;28;20416;-38
2021/12/18 13:10:35;;;;;;;7.38;3.75;;;;;;;;;;5054168;28;20032;-45
2021/12/18 13:13:05;;;;;;;19.73;4.40;;;;;;;;;;5053709;28;20037;-40
2021/12/18 13:15:51;;;;;;;;;;;;;;;;;;5054588;28;20032;-40
2021/12/18 13:18:18;;;;;;;10.55;4.53;;;;;;;;;;5053668;28;19970;-42
2021/12/18 13:20:55;;;;;;;12.77;4.68;;;;;;;;;;5053797;28;20033;-41
2021/12/18 13:23:38;;;;;;;6.30;3.78;;;;;;;;;;5053846;28;20531;-43
2021/12/18 13:26:07;;;;;;;5.25;3.80;;;;;;;;;;5053633;28;20393;-37
2021/12/18 13:28:33;;;;;;;8.65;4.35;;;;;;;;;;5046833;28;20385;-38
2021/12/18 13:30:59;;;;;;;7.72;4.20;;;;;;;;;;5053492;28;20492;-45
2021/12/18 13:33:27;;;;;;;9.70;4.90;;;;;;;;;;5053771;28;20037;-39
2021/12/18 13:36:01;;;;;;;7.03;4.38;;;;;;;;;;5052589;28;20033;-44
2021/12/18 13:38:39;;;;;;;10.43;5.13;;;;;;;;;;5053479;28;20030;-40
2021/12/18 13:41:10;;;;;;;9.05;5.05;;;;;;;;;;5053357;28;20435;-46
2021/12/18 13:43:37;;;;;;;12.50;6.13;;;;;;;;;;5053408;28;20025;-42
2021/12/18 13:46:08;;;;;;;11.88;5.43;;;;;;;;;;5052505;28;20025;-43
2021/12/18 13:48:40;;;;;;;11.68;5.70;;;;;;;;;;5053511;28;20033;-43
2021/12/18 13:51:13;;;;;;;10.43;5.03;;;;;;;;;;5053567;28;20031;-43
2021/12/18 13:53:57;;;;;;;18.58;6.25;;;;;;;;;;5053017;28;20638;-46
2021/12/18 13:56:26;;;;;;;13.38;6.28;;;;;;;;;;5053231;28;20469;-46
2021/12/18 13:58:51;;;;;;;12.00;5.97;;;;;;;;;;5053293;28;20419;-45
2021/12/18 14:01:25;;;;;;;15.48;7.93;;;;;;;;;;5034859;28;20037;-46
2021/12/18 14:03:56;;;;;;;14.60;9.07;;;;;;;;;;5052771;28;20396;-46
2021/12/18 14:06:37;;;;;;;9.57;5.13;;;;;;;;;;5052762;28;20496;-41
2021/12/18 14:09:02;;;;;;;9.90;5.05;;;;;;;;;;5052899;28;20025;-41
2021/12/18 14:11:38;;;;;;;10.65;5.28;;;;;;;;;;5052739;28;20033;-40
2021/12/18 14:14:09;;;;;;;8.48;5.22;;;;;;;;;;5034863;28;20064;-44
2021/12/18 14:16:36;;;;;;;9.88;4.93;;;;;;;;;;5052547;28;20090;-45
2021/12/18 14:19:11;;;;;;;14.05;5.93;;;;;;;;;;5053810;28;20044;-40
2021/12/18 14:21:46;;;;;;;9.00;5.63;;;;;;;;;;5053848;28;20408;-38
2021/12/18 14:24:14;;;;;;;9.77;5.40;;;;;;;;;;5054089;28;20369;-38
2021/12/18 14:26:41;;;;;;;10.45;4.97;;;;;;;;;;5054000;28;20028;-37
2021/12/18 14:29:15;;;;;;;10.25;5.00;;;;;;;;;;5053941;28;20477;-37
2021/12/18 14:31:52;;;;;;;9.90;5.90;;;;;;;;;;5053882;28;20423;-36
2021/12/18 14:34:22;;;;;;;11.60;6.13;;;;;;;;;;5053638;28;20032;-36
2021/12/18 14:36:57;;;;;;;12.07;5.97;;;;;;;;;;5053670;28;20046;-36
2021/12/18 14:39:48;;;;;;;15.57;5.85;;;;;;;;;;5053615;28;20031;-39
2021/12/18 14:42:38;;;;;;;15.50;6.78;;;;;;;;;;5053387;28;20388;-40
2021/12/18 14:45:08;;;;;;;15.52;7.82;;;;;;;;;;5053032;28;20599;-42
2021/12/18 14:47:42;;;;;;;13.38;7.30;;;;;;;;;;5052602;28;20029;-39
2021/12/18 14:50:12;;;;;;;14.85;8.05;;;;;;;;;;5053219;28;20086;-41
2021/12/18 14:53:00;;;;;;;15.50;7.57;;;;;;;;;;5053310;28;20017;-42
2021/12/18 14:55:37;;;;;;;11.70;6.75;;;;;;;;;;5024907;28;20042;-37
2021/12/18 14:58:17;;;;;;;14.48;6.70;;;;;;;;;;5013268;28;20022;-45
2021/12/18 15:01:03;;;;;;;13.65;6.70;;;;;;;;;;5013065;28;20590;-40
2021/12/18 15:03:35;;;;;;;14.32;7.40;;;;;;;;;;5012885;28;20061;-42
2021/12/18 15:06:10;;;;;;;14.00;6.90;;;;;;;;;;5013359;28;20037;-48
2021/12/18 15:09:02;;;;;;;14.52;7.95;;;;;;;;;;5012860;28;20018;-44
2021/12/18 15:11:36;;;;;;;12.88;7.38;;;;;;;;;;5012734;28;20030;-45
2021/12/18 15:14:09;;;;;;;15.65;6.85;;;;;;;;;;4961783;28;1478682;-47
2021/12/18 15:16:55;;;;;;;31.05;8.27;;;;;;;;;;5013871;28;20041;-44
2021/12/18 15:19:30;;;;;;;16.02;7.72;;;;;;;;;;5013492;28;20026;-49
2021/12/18 15:22:04;;;;;;;14.18;7.70;;;;;;;;;;5013612;28;20034;-49
2021/12/18 15:24:32;;;;;;;14.18;7.05;;;;;;;;;;5013197;28;20034;-46
2021/12/18 15:27:00;;;;;;;19.95;8.55;;;;;;;;;;5013149;28;20170;-46
2021/12/18 15:29:32;;;;;;;15.63;8.30;;;;;;;;;;5013476;28;20029;-50
2021/12/18 15:31:58;;;;;;;15.18;8.15;;;;;;;;;;5013844;28;20484;-47
2021/12/18 15:34:25;;;;;;;17.77;8.20;;;;;;;;;;4995416;28;20045;-47
2021/12/18 15:36:57;;;;;;;20.88;9.13;;;;;;;;;;5013001;28;20035;-38
2021/12/18 15:39:24;;;;;;;25.20;10.50;;;;;;;;;;5013181;28;20101;-51